Alice, Texas
Current Conditions -  °F | °C
As of 1:53 PM on Saturday 25 Oct 2014 (Local Time) from KALI Reporting Station
Clear Clear  
Wind Chill: 31°   Ceiling: Unl
Heat Index: 31°   Visibility: 10mi
Dew Point: 16°   Wind: 7mph
Humidity: 40%   Direction: 70°ENE
Pressure: 30.11"   Gusts: NA
Location:  27.75°N, 98.06°W
Report Text: KALI 251853Z AUTO 07006KT 10SM CLR 31/16 A3011 RMK AO2 SLP195 T03060156
Loading
Personal Weather Stations






























Interactive Weather Map
Tropical Storm Tracking
New forecast layout! Learn more

10-Day Weather Forecast

Advertisements
Track Severe Weather on mobile